No data was retrieved for https://query.yahooapis.com/v1/public/yql?q=select+%2A+from+weather.forecast+where+woeid%3D973505&format=xml&u=c


Lesvos Island / Mitilini / Pligoni / SV8DTD



Thunder radar more information blitzortung!


Rain radar more information rain snow radar


Visit our other weather sites:

Template documentation
and downloads

And another site



No particular awareness of the weather is required.    There are no Weather-warnings

Nearby METAR Reports

   
EHVK - Volkel Rnlafb, Netherlands
Distance from station: SW 18 km
Updated: Sun-Mar-2021 00:25
Clear  
Clear  
   Wind: North 5.6 km/h
Wind: North 5.6 km/h
Temperature: -1°C
Wind Chill: -3°C
Dew Point: -3°C
Humidity: 86%
Barometer: 1030 hPa
Clouds: Clear
Visibility: More than 10 km
Cloud details: Clear
EHVK 062225Z AUTO 36003KT 9999 NCD M01/M03 Q1030 BLU
EDLV - Niederrhein, Germany
Distance from station: SE 25 km
Updated: Sun-Mar-2021 00:20
Clear  
Clear  
   Wind: North 3.7 km/h
Wind: North 3.7 km/h
Temperature: 1°C
Dew Point: -2°C
Humidity: 81%
Barometer: 1030 hPa
Visibility: More than 10 km
Cloud details: Clear
EDLV 062220Z 36002KT CAVOK 01/M02 Q1030
EHDL - Deelen Rnlafb, Netherlands
Distance from station: N 35 km
Updated: Sun-Mar-2021 00:25
Clear  
Clear  
   Wind: SSW 3.7 km/h
Wind: SSW 3.7 km/h
Temperature: -4°C
Dew Point: -5°C
Humidity: 93%
Barometer: 1030 hPa
Clouds: Clear
Visibility: More than 10 km
Cloud details: Clear
EHDL 062225Z AUTO 21002KT 9999 NCD M04/M05 Q1030 BLU
EHEH - Eindhoven Rnlafb, Netherlands
Distance from station: SW 48 km
Updated: Sun-Mar-2021 00:25
Clear  
Clear  
   Wind: varies 3.7 km/h
Wind: varies 3.7 km/h
Temperature: -3°C
Dew Point: -4°C
Humidity: 93%
Barometer: 1030 hPa
Clouds: Clear
Visibility: More than 10 km
Cloud details: Clear
EHEH 062225Z AUTO VRB02KT 9999 NCD M03/M04 Q1030 BLU
EHGR - Gilze-Rijen Rnla, Netherlands
Distance from station: WSW 70 km
Updated: Sun-Mar-2021 00:25
Clear  
Clear  
   Wind: NE 7.4 km/h
Wind: NE 7.4 km/h
Temperature: -2°C
Wind Chill: -5°C
Dew Point: -4°C
Humidity: 86%
Barometer: 1030 hPa
Clouds: Clear
Visibility: More than 10 km
Cloud details: Clear
EHGR 062225Z AUTO 04004KT 010V070 9999 NCD M02/M04 Q1030 BLU
EBBL - Kleine-Brogel(Ba, Belgium
Distance from station: SSW 71 km
Updated: Sun-Mar-2021 00:25
Clear  
Clear  
   Wind: varies 1.9 km/h
Wind: varies 1.9 km/h
Temperature: -2°C
Dew Point: -4°C
Humidity: 86%
Barometer: 1029 hPa
Clouds: Clear
Visibility: More than 10 km
Cloud details: Clear
EBBL 062225Z AUTO VRB01KT 9999 NCD M02/M04 Q1029 BLU

Script developed by  Saratoga-weather.org Adapted for the template by  Weerstation Leuven

You find our weather info also at:

European Weather Network

Citizen Weather Observer Program (CWOP)

Equipment we use:

Weather-station
Davis VP2

Weather-program
Meteohub

Davis VP2

Meteohub